createdAt,value
2023-04-30T00:01:08.819Z,10.77
2023-04-30T00:06:03.209Z,10.45
2023-04-30T00:08:30.580Z,11.23
2023-04-30T00:10:57.657Z,11.80
2023-04-30T00:15:51.601Z,10.75
2023-04-30T00:18:18.771Z,12.27
2023-04-30T00:23:13.525Z,11.48
2023-04-30T00:25:40.556Z,12.13
2023-04-30T00:30:34.453Z,11.90
2023-04-30T00:33:01.725Z,11.77
2023-04-30T00:35:30.023Z,12.98
2023-04-30T00:37:57.170Z,14.43
2023-04-30T00:40:24.320Z,14.98
2023-04-30T00:42:53.714Z,13.85
2023-04-30T00:45:22.458Z,13.73
2023-04-30T00:47:50.447Z,14.68
2023-04-30T00:50:17.634Z,13.38
2023-04-30T00:52:45.470Z,14.38
2023-04-30T00:55:13.223Z,14.27
2023-04-30T00:57:43.685Z,15.10
2023-04-30T01:00:11.637Z,14.70
2023-04-30T01:02:39.011Z,14.05
2023-04-30T01:05:07.624Z,14.63
2023-04-30T01:07:36.341Z,13.50
2023-04-30T01:10:03.757Z,13.75
2023-04-30T01:12:45.751Z,13.88
2023-04-30T01:15:28.371Z,14.32
2023-04-30T01:18:11.002Z,13.55
2023-04-30T01:20:48.433Z,13.70
2023-04-30T01:23:18.583Z,13.63
2023-04-30T01:26:22.598Z,12.85
2023-04-30T01:28:51.955Z,13.32
2023-04-30T01:31:20.241Z,11.48
2023-04-30T01:33:47.476Z,10.80
2023-04-30T01:36:20.583Z,10.75
2023-04-30T01:39:07.241Z,12.52
2023-04-30T01:41:48.327Z,12.55
2023-04-30T01:44:50.322Z,14.25
2023-04-30T01:47:40.778Z,14.25
2023-04-30T01:50:26.697Z,14.82
2023-04-30T01:52:57.427Z,13.45
2023-04-30T01:55:30.566Z,12.73
2023-04-30T01:58:05.566Z,15.55
2023-04-30T02:00:34.073Z,15.00
2023-04-30T02:03:01.493Z,12.88
2023-04-30T02:05:30.452Z,13.00
2023-04-30T02:07:57.601Z,14.70
2023-04-30T02:10:26.503Z,15.75
2023-04-30T02:12:54.251Z,14.57
2023-04-30T02:15:21.643Z,15.23
2023-04-30T02:17:48.758Z,15.75
2023-04-30T02:20:16.066Z,15.32
2023-04-30T02:22:43.381Z,17.02
2023-04-30T02:25:12.698Z,16.98
2023-04-30T02:27:40.555Z,16.52
2023-04-30T02:30:08.317Z,16.60
2023-04-30T02:32:35.696Z,14.00
2023-04-30T02:35:03.044Z,15.13
2023-04-30T02:37:30.829Z,16.63
2023-04-30T02:42:25.947Z,16.98
2023-04-30T02:44:53.182Z,16.95
2023-04-30T02:47:20.361Z,18.70
2023-04-30T02:49:47.560Z,18.83
2023-04-30T02:52:14.654Z,18.73
2023-04-30T02:54:41.754Z,19.30
2023-04-30T02:57:08.993Z,20.08
2023-04-30T02:59:36.142Z,18.88
2023-04-30T03:02:03.341Z,17.88
2023-04-30T03:04:30.896Z,18.02
2023-04-30T03:06:57.923Z,19.38
2023-04-30T03:11:51.864Z,19.42
2023-04-30T03:16:45.856Z,18.50
2023-04-30T03:19:13.119Z,19.38
2023-04-30T03:21:41.269Z,20.85
2023-04-30T03:24:08.462Z,21.27
2023-04-30T03:26:35.630Z,20.98
2023-04-30T03:29:02.838Z,21.48
2023-04-30T03:31:30.128Z,21.15
2023-04-30T03:33:57.258Z,22.30
2023-04-30T03:38:51.375Z,20.85
2023-04-30T03:43:46.438Z,21.40
2023-04-30T03:46:13.488Z,20.58
2023-04-30T03:48:40.578Z,21.13
2023-04-30T03:51:07.790Z,23.05
2023-04-30T03:53:34.915Z,23.80
2023-04-30T03:56:02.980Z,23.58
2023-04-30T03:58:30.520Z,25.25
2023-04-30T04:00:58.365Z,25.48
2023-04-30T04:03:25.577Z,26.75
2023-04-30T04:05:52.750Z,29.83
2023-04-30T04:08:19.803Z,29.70
2023-04-30T04:13:13.911Z,27.98
2023-04-30T04:15:41.153Z,27.05
2023-04-30T04:18:08.882Z,26.80
2023-04-30T04:20:36.060Z,28.48
2023-04-30T04:23:03.679Z,28.40
2023-04-30T04:25:30.653Z,27.52
2023-04-30T04:27:58.721Z,28.05
2023-04-30T04:30:26.261Z,26.27
2023-04-30T04:32:54.169Z,26.20
2023-04-30T04:35:21.631Z,26.05
2023-04-30T04:37:48.954Z,25.10
2023-04-30T04:40:16.758Z,23.75
2023-04-30T04:42:43.990Z,23.55
2023-04-30T04:45:12.993Z,22.92
2023-04-30T04:47:40.232Z,22.08
2023-04-30T04:50:08.009Z,21.27
2023-04-30T04:52:35.397Z,20.65
2023-04-30T04:55:02.653Z,20.75
2023-04-30T04:57:30.572Z,21.13
2023-04-30T04:59:58.545Z,18.60
2023-04-30T05:02:26.484Z,19.70
2023-04-30T05:04:53.712Z,18.98
2023-04-30T05:07:21.306Z,19.40
2023-04-30T05:09:48.409Z,17.63
2023-04-30T05:12:15.665Z,18.92
2023-04-30T05:14:43.302Z,18.52
2023-04-30T05:17:10.618Z,17.67
2023-04-30T05:19:37.790Z,19.17
2023-04-30T05:22:05.628Z,18.67
2023-04-30T05:24:32.842Z,18.85
2023-04-30T05:27:01.297Z,18.80
2023-04-30T05:29:28.421Z,17.65
2023-04-30T05:31:56.270Z,14.88
2023-04-30T05:34:23.744Z,10.95
2023-04-30T05:36:51.150Z,12.77
2023-04-30T05:39:18.328Z,13.70
2023-04-30T05:41:45.442Z,13.52
2023-04-30T05:44:12.687Z,14.68
2023-04-30T05:46:39.774Z,14.85
2023-04-30T05:49:06.932Z,14.77
2023-04-30T05:51:34.030Z,14.23
2023-04-30T05:54:01.293Z,14.45
2023-04-30T05:56:29.981Z,11.45
2023-04-30T05:58:57.160Z,12.50
2023-04-30T06:01:25.540Z,10.68
2023-04-30T06:03:53.150Z,10.32
2023-04-30T06:06:20.671Z,10.25
2023-04-30T06:08:47.887Z,9.57
2023-04-30T06:11:15.479Z,8.60
2023-04-30T06:13:42.625Z,8.82
2023-04-30T06:16:10.058Z,8.93
2023-04-30T06:18:37.258Z,9.55
2023-04-30T06:21:04.474Z,8.63
2023-04-30T06:23:31.995Z,8.52
2023-04-30T06:25:59.132Z,8.23
2023-04-30T06:28:26.502Z,8.95
2023-04-30T06:30:55.380Z,8.80
2023-04-30T06:33:22.706Z,8.00
2023-04-30T06:35:52.507Z,8.35
2023-04-30T06:38:19.724Z,7.90
2023-04-30T06:41:05.652Z,8.07
2023-04-30T06:43:32.939Z,7.57
2023-04-30T06:46:00.045Z,6.80
2023-04-30T06:48:27.247Z,7.18
2023-04-30T06:50:54.386Z,5.03
2023-04-30T10:18:25.605Z,3.15
2023-04-30T10:20:54.668Z,2.10
2023-04-30T10:23:22.689Z,2.30
2023-04-30T10:25:51.786Z,2.45
2023-04-30T10:28:19.538Z,2.80
2023-04-30T10:31:05.648Z,2.13
2023-04-30T10:33:49.955Z,2.47
2023-04-30T10:36:32.714Z,2.45
2023-04-30T10:39:01.292Z,2.60
2023-04-30T10:41:50.006Z,2.28
2023-04-30T10:44:23.351Z,2.30
2023-04-30T10:47:17.764Z,2.10
2023-04-30T10:49:50.127Z,2.05
2023-04-30T10:52:29.065Z,2.20
2023-04-30T10:54:56.806Z,2.38
2023-04-30T10:57:25.285Z,2.30
2023-04-30T11:00:14.644Z,1.88
2023-04-30T11:02:44.407Z,2.97
2023-04-30T11:05:14.700Z,2.50
2023-04-30T11:07:58.864Z,2.67
2023-04-30T11:11:04.004Z,2.67
2023-04-30T11:14:24.618Z,3.00
2023-04-30T11:16:54.040Z,2.85
2023-04-30T11:19:25.227Z,2.75
2023-04-30T11:22:04.948Z,2.80
2023-04-30T11:24:55.587Z,2.72
2023-04-30T11:27:25.016Z,2.55
2023-04-30T11:29:53.611Z,3.00
2023-04-30T11:32:23.295Z,2.60
2023-04-30T11:34:51.408Z,2.80
2023-04-30T11:37:30.125Z,2.83
2023-04-30T11:40:07.724Z,3.03
2023-04-30T11:42:35.942Z,2.97
2023-04-30T11:45:07.800Z,2.90
2023-04-30T11:47:41.280Z,2.58
2023-04-30T11:50:10.642Z,3.45
2023-04-30T11:52:39.249Z,3.25
2023-04-30T11:55:12.830Z,2.88
2023-04-30T11:58:00.241Z,2.83
2023-04-30T12:00:48.262Z,2.50
2023-04-30T12:03:17.522Z,2.90
2023-04-30T12:05:47.350Z,2.75
2023-04-30T12:08:14.733Z,3.13
2023-04-30T12:10:42.249Z,2.58
2023-04-30T12:13:28.208Z,3.03
2023-04-30T12:16:00.188Z,4.00
2023-04-30T12:18:28.061Z,3.00
2023-04-30T12:20:55.723Z,3.65
2023-04-30T12:23:29.419Z,3.92
2023-04-30T12:26:00.423Z,3.45
2023-04-30T12:28:47.043Z,3.80
2023-04-30T12:31:15.262Z,3.10
2023-04-30T12:33:54.484Z,3.53
2023-04-30T12:36:21.663Z,3.85
2023-04-30T12:39:13.650Z,4.40
2023-04-30T12:42:16.511Z,3.80
2023-04-30T12:44:45.831Z,4.30
2023-04-30T12:47:16.504Z,5.43
2023-04-30T12:49:53.493Z,3.85
2023-04-30T12:52:33.879Z,3.53
2023-04-30T12:55:21.957Z,3.20
2023-04-30T13:01:12.459Z,3.40
2023-04-30T13:03:42.511Z,3.50
2023-04-30T13:06:10.998Z,3.65
2023-04-30T13:08:49.864Z,2.80
2023-04-30T13:11:25.203Z,3.30
2023-04-30T13:13:52.537Z,3.45
2023-04-30T13:16:19.798Z,3.13
2023-04-30T13:18:47.440Z,3.72
2023-04-30T13:21:14.859Z,3.80
2023-04-30T13:23:52.097Z,3.67
2023-04-30T13:26:23.793Z,3.58
2023-04-30T13:28:51.739Z,3.50
2023-04-30T13:31:47.022Z,3.50
2023-04-30T13:34:15.543Z,3.28
2023-04-30T13:36:43.013Z,3.58
2023-04-30T13:39:11.086Z,3.03
2023-04-30T13:41:40.269Z,3.08
2023-04-30T13:44:07.450Z,3.03
2023-04-30T13:46:34.932Z,3.67
2023-04-30T13:49:02.961Z,3.35
2023-04-30T13:51:30.137Z,3.70
2023-04-30T13:53:58.183Z,3.42
2023-04-30T13:56:25.840Z,3.00
2023-04-30T13:58:53.991Z,3.78
2023-04-30T14:01:21.386Z,3.80
2023-04-30T14:03:48.802Z,3.42
2023-04-30T14:06:16.257Z,3.83
2023-04-30T14:08:43.845Z,3.90
2023-04-30T14:11:11.267Z,3.95
2023-04-30T14:13:38.570Z,4.75
2023-04-30T14:16:27.763Z,3.70
2023-04-30T14:18:54.986Z,5.15
2023-04-30T14:21:22.302Z,5.38
2023-04-30T14:23:54.045Z,4.18
2023-04-30T14:26:21.879Z,6.32
2023-04-30T14:28:49.075Z,5.40
2023-04-30T14:31:16.328Z,4.20
2023-04-30T14:33:48.475Z,6.70
2023-04-30T14:36:16.033Z,4.22
2023-04-30T14:38:43.096Z,3.50
2023-04-30T14:41:12.875Z,3.90
2023-04-30T14:43:41.638Z,4.00
2023-04-30T14:46:09.025Z,4.05
2023-04-30T14:48:36.610Z,3.80
2023-04-30T14:51:06.758Z,4.32
2023-04-30T14:53:34.002Z,4.30
2023-04-30T14:56:01.141Z,4.07
2023-04-30T14:58:28.719Z,4.22
2023-04-30T15:00:56.257Z,4.50
2023-04-30T15:03:24.704Z,4.72
2023-04-30T15:05:55.046Z,4.28
2023-04-30T15:08:22.249Z,4.50
2023-04-30T15:10:52.634Z,4.47
2023-04-30T15:13:20.054Z,4.30
2023-04-30T15:15:49.801Z,4.72
2023-04-30T15:18:41.612Z,5.43
2023-04-30T15:21:11.169Z,6.03
2023-04-30T15:23:38.692Z,6.03
2023-04-30T15:26:08.767Z,3.40
2023-04-30T15:31:24.476Z,3.25
2023-04-30T15:33:51.874Z,3.38
2023-04-30T15:36:19.182Z,3.95
2023-04-30T15:39:07.334Z,4.50
2023-04-30T15:41:56.926Z,4.38
2023-04-30T15:44:36.415Z,3.65
2023-04-30T15:47:03.780Z,3.97
2023-04-30T15:49:31.106Z,4.00
2023-04-30T15:51:58.846Z,3.35
2023-04-30T15:54:45.074Z,3.92
2023-04-30T15:57:30.675Z,4.25
2023-04-30T15:59:58.311Z,3.75
2023-04-30T16:02:26.001Z,4.43
2023-04-30T16:04:53.781Z,4.35
2023-04-30T16:07:21.233Z,3.92
2023-04-30T16:10:11.555Z,3.22
2023-04-30T16:12:42.158Z,3.25
2023-04-30T16:15:10.329Z,3.60
2023-04-30T16:24:32.155Z,4.00
2023-04-30T16:27:02.623Z,3.63
2023-04-30T16:29:30.400Z,4.18
2023-04-30T16:32:00.670Z,4.50
2023-04-30T16:34:30.425Z,3.90
2023-04-30T16:37:00.156Z,3.92
2023-04-30T16:39:27.377Z,3.58
2023-04-30T16:41:55.945Z,3.50
2023-04-30T16:44:23.134Z,4.40
2023-04-30T16:46:50.783Z,4.05
2023-04-30T16:49:18.326Z,4.10
2023-04-30T16:51:46.968Z,4.15
2023-04-30T16:54:14.313Z,4.20
2023-04-30T16:56:42.916Z,4.18
2023-04-30T16:59:12.599Z,5.45
2023-04-30T17:01:39.946Z,3.97
2023-04-30T17:04:08.189Z,5.15
2023-04-30T17:06:35.763Z,4.70
2023-04-30T17:09:22.005Z,5.53
2023-04-30T17:11:50.053Z,6.10
2023-04-30T17:14:17.433Z,5.68
2023-04-30T17:16:47.319Z,5.80
2023-04-30T17:19:14.672Z,5.80
2023-04-30T17:21:43.088Z,6.53
2023-04-30T17:24:10.379Z,6.20
2023-04-30T17:26:37.627Z,7.40
2023-04-30T17:29:23.762Z,7.38
2023-04-30T17:31:52.146Z,7.30
2023-04-30T17:34:19.386Z,7.30
2023-04-30T17:36:49.134Z,8.35
2023-04-30T17:39:17.176Z,7.93
2023-04-30T17:41:45.510Z,6.05
2023-04-30T17:44:13.879Z,7.22
2023-04-30T17:46:42.357Z,6.63
2023-04-30T17:49:10.322Z,7.25
2023-04-30T17:51:38.222Z,5.88
2023-04-30T17:54:05.618Z,5.47
2023-04-30T17:56:33.465Z,7.97
2023-04-30T17:59:02.534Z,9.60
2023-04-30T18:01:29.839Z,8.95
2023-04-30T18:04:00.169Z,7.68
2023-04-30T18:06:31.392Z,6.10
2023-04-30T18:09:01.419Z,6.55
2023-04-30T18:11:29.478Z,7.28
2023-04-30T18:13:58.260Z,6.82
2023-04-30T18:16:25.567Z,5.90
2023-04-30T18:18:55.849Z,6.22
2023-04-30T18:21:41.777Z,5.75
2023-04-30T18:24:09.134Z,5.53
2023-04-30T18:26:37.691Z,6.30
2023-04-30T18:29:06.321Z,6.18
2023-04-30T18:31:36.605Z,5.90
2023-04-30T18:34:04.010Z,6.40
2023-04-30T18:36:31.326Z,5.90
2023-04-30T18:39:02.095Z,6.07
2023-04-30T18:41:29.778Z,6.47
2023-04-30T18:44:15.999Z,6.53
2023-04-30T18:46:43.588Z,7.10
2023-04-30T18:49:13.986Z,7.20
2023-04-30T18:51:41.196Z,7.10
2023-04-30T18:54:08.547Z,5.97
2023-04-30T18:56:37.295Z,5.85
2023-04-30T18:59:05.721Z,5.30
2023-04-30T19:01:59.654Z,8.10
2023-04-30T19:04:37.811Z,7.00
2023-04-30T19:07:09.259Z,10.70
2023-04-30T19:09:39.617Z,17.15
2023-04-30T19:12:26.389Z,17.50
2023-04-30T19:14:55.990Z,16.85
2023-04-30T19:17:23.493Z,16.88
2023-04-30T19:20:04.051Z,17.00
2023-04-30T19:22:51.473Z,27.85
2023-04-30T19:25:28.017Z,18.92
2023-04-30T19:28:16.378Z,16.83
2023-04-30T19:31:04.678Z,11.43
2023-04-30T19:33:39.465Z,8.05
2023-04-30T19:36:26.356Z,9.90
2023-04-30T19:38:56.069Z,9.05
2023-04-30T19:41:27.739Z,8.43
2023-04-30T19:43:58.456Z,8.57
2023-04-30T19:46:26.200Z,6.00
2023-04-30T19:48:54.554Z,6.28
2023-04-30T19:51:40.840Z,7.45
2023-04-30T19:54:26.976Z,6.57
2023-04-30T19:57:15.607Z,8.40
2023-04-30T19:59:47.623Z,7.22
2023-04-30T20:02:15.738Z,7.30
2023-04-30T20:04:44.044Z,7.18
2023-04-30T20:07:14.092Z,7.82
2023-04-30T20:09:43.703Z,8.98
2023-04-30T20:12:11.102Z,8.20
2023-04-30T20:14:39.630Z,7.65
2023-04-30T20:17:09.882Z,7.38
2023-04-30T20:19:38.666Z,5.18
2023-04-30T20:22:13.368Z,6.85
2023-04-30T20:27:15.896Z,7.93
2023-04-30T20:29:44.383Z,8.57
2023-04-30T20:32:11.630Z,6.63
2023-04-30T20:34:38.956Z,7.40
2023-04-30T20:37:25.274Z,6.65
2023-04-30T20:39:52.513Z,6.13
2023-04-30T20:42:20.058Z,7.63
2023-04-30T20:44:48.380Z,5.03
2023-04-30T20:47:34.147Z,5.43
2023-04-30T20:50:04.777Z,7.78
2023-04-30T20:52:33.198Z,5.53
2023-04-30T20:55:00.860Z,6.63
2023-04-30T20:57:31.545Z,5.53
2023-04-30T20:59:59.489Z,5.80
2023-04-30T21:02:28.166Z,4.55
2023-04-30T21:04:58.947Z,6.60
2023-04-30T21:07:29.479Z,6.07
2023-04-30T21:10:11.309Z,4.55
2023-04-30T21:13:36.045Z,5.85
2023-04-30T21:16:49.062Z,6.82
2023-04-30T21:23:15.680Z,5.90
2023-04-30T21:26:00.434Z,6.00
2023-04-30T21:28:54.722Z,6.13
2023-04-30T21:31:32.698Z,5.57
2023-04-30T21:34:03.989Z,6.53
2023-04-30T21:36:39.680Z,5.35
2023-04-30T21:42:16.280Z,4.72
2023-04-30T21:45:09.479Z,6.93
2023-04-30T21:47:53.554Z,6.65
2023-04-30T22:30:57.761Z,8.13
2023-04-30T22:33:27.554Z,7.30
2023-04-30T22:38:36.961Z,6.65
2023-04-30T22:41:04.965Z,7.15
2023-04-30T22:43:35.275Z,7.95
2023-04-30T22:46:02.682Z,8.52
2023-04-30T22:48:30.234Z,8.73
2023-04-30T22:50:58.886Z,6.45
2023-04-30T22:53:26.414Z,6.82
2023-04-30T22:55:55.010Z,5.53
2023-04-30T22:58:22.507Z,8.63
2023-04-30T23:00:49.737Z,8.10
2023-04-30T23:03:17.464Z,6.53
2023-04-30T23:05:45.016Z,6.50
2023-04-30T23:08:14.356Z,6.07
2023-04-30T23:10:44.436Z,6.68
2023-04-30T23:13:12.068Z,8.90
2023-04-30T23:15:39.305Z,6.30
2023-04-30T23:18:06.728Z,5.43
2023-04-30T23:20:33.861Z,6.57
2023-04-30T23:25:27.809Z,7.88
2023-04-30T23:27:55.153Z,7.65
2023-04-30T23:30:23.695Z,7.07
2023-04-30T23:32:50.958Z,7.28
2023-04-30T23:35:18.267Z,10.98
2023-04-30T23:37:45.340Z,6.70
2023-04-30T23:40:12.881Z,5.63
2023-04-30T23:42:40.185Z,9.50
2023-04-30T23:45:08.177Z,11.60
2023-04-30T23:47:36.858Z,8.02
2023-04-30T23:50:04.896Z,7.32
2023-04-30T23:52:32.520Z,7.65
2023-04-30T23:55:00.696Z,6.75
2023-04-30T23:57:28.331Z,9.23
2023-04-30T23:59:56.279Z,9.38
